Nearby METAR Reports

 

KPMP - Pompano Beach, Florida, USA
Distance from station: NNW 3mi, 5km
Updated: 03/21/2019 12:28pm
Mostly cloudy
Mostly cloudy
 Wind from NNW
Wind: NNW 6 mph , 9 km/h
Temperature: 75°F , 24°C
Dew Point: 63°F , 17°C
Humidity: 65%
Barometer: 29.99 inHg , 1015.6 hPa
Clouds: Mostly cloudy
Visibility: 10 miles , 16 km
Cloud details: Partly cloudy 2500 ft
Mostly cloudy 3100 ft
Mostly cloudy 5500 ft
2019/03/21 16:28 KPMP 211628Z 34005KT 10SM SCT025 BKN031 BKN055 24/17 A2999 RMK AO2 T02440167
KFXE - Ft Lauderd/Exec, Florida, USA
Distance from station: W 6mi, 9km
Updated: 03/21/2019 12:15pm
Partly cloudy
Partly cloudy
 Wind from varies
Wind: varies 7 mph , 11 km/h
Temperature: 75°F , 24°C
Dew Point: 64°F , 18°C
Humidity: 69%
Barometer: 30.00 inHg , 1015.9 hPa
Clouds: Partly cloudy
Visibility: 10 miles , 16 km
Cloud details: Partly cloudy 2400 ft
Partly cloudy 2900 ft
2019/03/21 16:15 KFXE 211615Z VRB06KT 10SM SCT024 SCT029 24/18 A3000 RMK AO2 T02440183
 
KFLL - Ft Lauderd/Holly, Florida, USA
Distance from station: SSW 11mi, 17km
Updated: 03/21/2019 11:53am
Mostly cloudy
Mostly cloudy
 Wind from N
Wind: N 6 mph , 9 km/h
Temperature: 73°F , 23°C
Dew Point: 63°F , 17°C
Humidity: 69%
Barometer: 30.00 inHg , 1015.9 hPa
Clouds: Mostly cloudy
Visibility: 10 miles , 16 km
Cloud details: Mostly cloudy 1900 ft
Mostly cloudy 6500 ft
2019/03/21 15:53 KFLL 211553Z 36005KT 10SM BKN019 BKN065 23/17 A3000 RMK AO2 SLP157 T02330172
KBCT - Boca Raton, Florida, USA
Distance from station: N 12mi, 19km
Updated: 03/21/2019 11:47am
Mostly cloudy
Mostly cloudy
 Wind from N
Wind: N 8 mph , 13 km/h
Temperature: 75°F , 24°C
Dew Point: 64°F , 18°C
Humidity: 69%
Barometer: 30.01 inHg , 1016.3 hPa
Clouds: Mostly cloudy
Visibility: 10 miles , 16 km
Cloud details: Partly cloudy 2000 ft
Mostly cloudy 3000 ft
2019/03/21 15:47 KBCT 211547Z 36007KT 10SM SCT020 BKN030 24/18 A3001
 
KHWO - Hollywood, Florida, USA
Distance from station: SSW 17mi, 27km
Updated: 03/21/2019 11:53am
Few Clouds
Few Clouds
 Wind from NNW
Wind: NNW 10 mph , 17 km/h
Temperature: 73°F , 23°C
Dew Point: 63°F , 17°C
Humidity: 69%
Barometer: 30.02 inHg , 1016.6 hPa
Clouds: Few Clouds
Visibility: 10 miles , 16 km
Cloud details: Few Clouds 4700 ft
2019/03/21 15:53 KHWO 211553Z 34009KT 10SM FEW047 23/17 A3002 RMK AO2 SLP164 T02330167 $
KOPF - Miami/Opa Locka, Florida, USA
Distance from station: SSW 24mi, 38km
Updated: 03/21/2019 11:53am
Mostly cloudy
Mostly cloudy
 Wind from N
Wind: N 10 mph , 17 km/h
Temperature: 75°F , 24°C
Dew Point: 63°F , 17°C
Humidity: 65%
Barometer: 30.01 inHg , 1016.3 hPa
Clouds: Mostly cloudy
Visibility: 10 miles , 16 km
Cloud details: Partly cloudy 2400 ft
Mostly cloudy 4200 ft
2019/03/21 15:53 KOPF 211553Z 36009KT 10SM SCT024 BKN042 24/17 A3001 RMK AO2 SLP163 T02440172
 
KMIA - Miami, Florida, USA
Distance from station: SSW 31mi, 50km
Updated: 03/21/2019 11:53am
Mostly cloudy
Mostly cloudy
 Wind from NW
Wind: NW 5 mph , 7 km/h
Temperature: 73°F , 23°C
Dew Point: 64°F , 18°C
Humidity: 74%
Barometer: 30.01 inHg , 1016.3 hPa
Clouds: Mostly cloudy
Visibility: 10 miles , 16 km
Cloud details: Few Clouds 2100 ft
Mostly cloudy 3700 ft
Mostly cloudy 6000 ft
2019/03/21 15:53 KMIA 211553Z 32004KT 10SM FEW021 BKN037 BKN060 23/18 A3001 RMK AO2 SLP161 T02330183
KPBI - West Palm Beach, Florida, USA
Distance from station: N 33mi, 52km
Updated: 03/21/2019 12:25pm
Overcast
Overcast
 Wind from N
Wind: N 10 mph , 17 km/h
Temperature: 72°F , 22°C
Dew Point: 61°F , 16°C
Humidity: 69%
Barometer: 30.01 inHg , 1016.3 hPa
Clouds: Overcast
Visibility: 10 miles , 16 km
Cloud details: Mostly cloudy 2800 ft
Mostly cloudy 3700 ft
Overcast 5000 ft
2019/03/21 16:25 KPBI 211625Z 36009KT 10SM BKN028 BKN037 OVC050 22/16 A3001 RMK AO2 T02220156 $
 
KTMB - Miami/Tamiami, Florida, USA
Distance from station: SSW 44mi, 71km
Updated: 03/21/2019 12:01pm
Mostly cloudy
Mostly cloudy
 Wind from NNW
Wind: NNW 16 mph , 26 km/h
Temperature: 77°F , 25°C
Dew Point: 63°F , 17°C
Humidity: 61%
Barometer: 30.00 inHg , 1015.9 hPa
Clouds: Mostly cloudy
Visibility: 10 miles , 16 km
Cloud details: Partly cloudy 2600 ft
Mostly cloudy 3200 ft
Mostly cloudy 4200 ft
2019/03/21 16:01 KTMB 211601Z 33014KT 10SM SCT026 BKN032 BKN042 25/17 A3000 RMK AO2 T02500172